Time;durP1;ratioP1;P1;durP2;ratioP2;P2;SDS_P1;SDS_P2;PMS_P1;PMS_P2;Temp;Humidity;BMP_temperature;BMP_pressure;BME280_temperature;BME280_humidity;BME280_pressure;Samples;Min_cycle;Max_cycle;Signal;HPM_P1;HPM_P2
2021/06/17 00:00:49;;;;;;;;;7.50;6.25;;;;;32.32;37.75;100359.13;4921820;28;45341;-50
2021/06/17 00:03:15;;;;;;;;;12.25;9.00;;;;;32.33;38.10;100359.97;4921356;28;45873;-47
2021/06/17 00:05:42;;;;;;;;;9.75;9.75;;;;;32.32;38.14;100355.50;4921543;28;45666;-49
2021/06/17 00:08:08;;;;;;;;;13.50;11.00;;;;;32.29;38.19;100354.91;4921420;28;45507;-46
2021/06/17 00:10:46;;;;;;;;;8.25;8.25;;;;;32.30;38.07;100356.59;4921381;28;45182;-45
2021/06/17 00:13:18;;;;;;;;;8.50;8.50;;;;;32.30;37.97;100361.31;4921362;28;46506;-45
2021/06/17 00:15:45;;;;;;;;;8.00;7.75;;;;;32.27;38.42;100359.88;4921487;28;45398;-49
2021/06/17 00:18:11;;;;;;;;;8.50;7.00;;;;;32.27;37.66;100367.38;4921461;28;45400;-44
2021/06/17 00:20:37;;;;;;;;;9.50;9.25;;;;;32.24;37.61;100368.69;4931572;28;45502;-46
2021/06/17 00:23:03;;;;;;;;;8.75;7.25;;;;;32.24;38.01;100368.69;4940109;28;46268;-46
2021/06/17 00:25:29;;;;;;;;;8.75;8.75;;;;;32.25;38.50;100366.75;4940097;28;45394;-49
2021/06/17 00:27:54;;;;;;;;;6.50;6.50;;;;;32.24;37.82;100356.72;4940406;28;45348;-46
2021/06/17 00:30:21;;;;;;;;;8.25;8.25;;;;;32.22;37.92;100357.00;4939059;28;45344;-48
2021/06/17 00:32:47;;;;;;;;;8.50;7.50;;;;;32.22;38.47;100354.22;4940049;28;45484;-48
2021/06/17 00:35:13;;;;;;;;;9.00;8.00;;;;;32.20;38.24;100350.84;4940258;28;45327;-49
2021/06/17 00:37:39;;;;;;;;;7.00;6.75;;;;;32.19;38.10;100340.00;4940376;28;45304;-46
2021/06/17 00:40:07;;;;;;;;;7.50;7.50;;;;;32.18;38.16;100343.88;4939655;28;45388;-48
2021/06/17 00:42:34;;;;;;;;;7.25;7.25;;;;;32.19;38.64;100348.34;4939642;28;45465;-51
2021/06/17 00:45:00;;;;;;;;;7.00;7.00;;;;;32.17;38.48;100334.69;4940007;28;45691;-47
2021/06/17 00:47:25;;;;;;;;;9.00;9.00;;;;;32.15;38.12;100331.31;4940282;28;45371;-45
2021/06/17 00:49:51;;;;;;;;;6.75;6.00;;;;;32.17;38.38;100333.88;4940111;28;45382;-51
2021/06/17 00:52:17;;;;;;;;;8.00;8.00;;;;;32.13;38.25;100323.25;4939846;28;45402;-49
2021/06/17 00:54:43;;;;;;;;;11.25;9.00;;;;;32.14;38.31;100315.75;4939599;28;45672;-48
2021/06/17 00:57:09;;;;;;;;;7.00;6.25;;;;;32.13;38.81;100308.53;4939755;28;45316;-46
2021/06/17 00:59:36;;;;;;;;;9.00;8.50;;;;;32.12;38.41;100304.09;4939682;28;45425;-47
2021/06/17 01:02:03;;;;;;;;;6.25;6.25;;;;;32.10;38.43;100303.50;4939779;28;46330;-46
2021/06/17 01:04:29;;;;;;;;;6.75;6.75;;;;;32.08;39.13;100311.25;4939805;28;45624;-47
2021/06/17 01:06:57;;;;;;;;;8.25;8.00;;;;;32.08;39.07;100314.00;4939872;28;45459;-50
2021/06/17 01:09:37;;;;;;;;;11.00;10.00;;;;;32.06;39.15;100307.88;4939294;28;45302;-51
2021/06/17 01:12:17;;;;;;;;;9.00;7.00;;;;;32.06;38.53;100305.91;4939602;28;46476;-48
2021/06/17 01:15:02;;;;;;;;;8.75;7.75;;;;;32.05;38.95;100303.41;4939527;28;45423;-46
2021/06/17 01:17:32;;;;;;;;;8.25;7.75;;;;;32.04;39.20;100299.81;4938527;28;45515;-46
2021/06/17 01:20:04;;;;;;;;;7.25;7.25;;;;;32.03;39.17;100306.44;4939631;28;45327;-45
2021/06/17 01:22:52;;;;;;;;;10.75;9.25;;;;;32.01;39.01;100297.53;4939468;28;45562;-48
2021/06/17 01:25:56;;;;;;;;;10.00;10.00;;;;;32.00;38.87;100288.34;4959634;28;45490;-47
2021/06/17 01:28:23;;;;;;;;;10.25;8.50;;;;;31.98;38.75;100298.84;4944237;28;45269;-48
2021/06/17 01:31:01;;;;;;;;;8.50;8.50;;;;;31.98;38.90;100303.59;4952751;28;45488;-49
2021/06/17 01:33:39;;;;;;;;;8.75;8.75;;;;;31.96;38.81;100308.53;4957920;28;45574;-46
2021/06/17 01:36:17;;;;;;;;;10.25;9.75;;;;;31.93;38.89;100292.38;4957925;28;45765;-49
2021/06/17 01:38:46;;;;;;;;;10.75;7.75;;;;;31.94;39.14;100297.72;4957443;28;45277;-45
2021/06/17 01:41:13;;;;;;;;;6.00;6.00;;;;;31.91;38.89;100302.91;4958264;28;45414;-47
2021/06/17 01:43:42;;;;;;;;;11.00;8.75;;;;;31.91;39.09;100316.78;4947158;28;45513;-46
2021/06/17 01:46:09;;;;;;;;;8.50;8.50;;;;;31.89;39.09;100347.56;4938553;28;45508;-47
2021/06/17 01:48:36;;;;;;;;;9.00;9.00;;;;;31.90;38.65;100453.94;4938332;28;45559;-47
2021/06/17 01:51:02;;;;;;;;;11.00;9.75;;;;;31.89;38.74;100511.38;4938520;28;45617;-48
2021/06/17 01:53:28;;;;;;;;;8.00;8.00;;;;;31.87;38.99;100534.91;4938152;28;46481;-51
2021/06/17 01:55:57;;;;;;;;;8.50;8.00;;;;;31.84;38.70;100534.31;4938378;28;45484;-49
2021/06/17 01:58:24;;;;;;;;;6.50;6.50;;;;;31.82;38.73;100546.78;4938215;28;45470;-48
2021/06/17 02:00:50;;;;;;;;;8.75;8.75;;;;;31.76;39.28;100543.06;4938134;28;45498;-47
2021/06/17 02:03:17;;;;;;;;;8.50;8.00;;;;;31.75;38.79;100523.84;4938316;28;45411;-50
2021/06/17 02:05:44;;;;;;;;;6.75;6.25;;;;;31.72;38.94;100516.00;4937922;28;45442;-45
2021/06/17 02:08:11;;;;;;;;;7.00;7.00;;;;;31.69;39.41;100501.53;4937150;28;45516;-48
2021/06/17 02:10:38;;;;;;;;;7.50;5.75;;;;;31.67;38.98;100495.38;4936964;28;45523;-50
2021/06/17 02:13:05;;;;;;;;;9.00;6.50;;;;;31.64;38.98;100486.69;4938183;28;45452;-45
2021/06/17 02:15:32;;;;;;;;;7.00;7.00;;;;;31.62;38.92;100469.47;4938656;28;45588;-49
2021/06/17 02:18:00;;;;;;;;;8.50;8.00;;;;;31.64;39.20;100492.22;4938767;28;45424;-49
2021/06/17 02:20:26;;;;;;;;;7.75;7.75;;;;;31.50;39.22;100473.09;4938837;28;45209;-48
2021/06/17 02:23:03;;;;;;;;;8.75;7.25;;;;;31.59;39.27;100515.19;4938386;28;45980;-48
2021/06/17 02:25:30;;;;;;;;;7.50;7.00;;;;;31.61;39.54;100539.94;4922101;28;45861;-47
2021/06/17 02:28:14;;;;;;;;;8.00;8.00;;;;;31.59;39.30;100606.75;4938681;28;45514;-48
2021/06/17 02:30:42;;;;;;;;;6.00;6.00;;;;;31.58;39.14;100756.84;4937312;28;45692;-48
2021/06/17 02:33:10;;;;;;;;;10.25;6.50;;;;;31.58;39.96;100779.88;4938475;28;45500;-51
2021/06/17 02:35:38;;;;;;;;;8.25;7.00;;;;;31.57;39.45;100769.84;4938266;28;45449;-49
2021/06/17 02:38:07;;;;;;;;;6.00;5.75;;;;;31.53;39.54;100747.31;4938629;28;45449;-44
2021/06/17 02:40:37;;;;;;;;;5.75;5.75;;;;;31.48;39.96;100722.19;4938562;28;45357;-48
2021/06/17 02:43:09;;;;;;;;;5.00;5.00;;;;;31.44;40.10;100722.91;4938001;28;45768;-47
2021/06/17 02:45:34;;;;;;;;;6.75;5.75;;;;;31.38;39.83;100699.75;4938475;28;45444;-44
2021/06/17 02:48:00;;;;;;;;;7.00;6.75;;;;;31.37;39.73;100679.50;4938412;28;45222;-46
2021/06/17 02:50:26;;;;;;;;;4.75;4.75;;;;;31.35;40.36;100662.25;4937856;28;45237;-49
2021/06/17 02:52:51;;;;;;;;;7.75;5.75;;;;;31.37;39.67;100642.59;4938015;28;45431;-47
2021/06/17 02:55:18;;;;;;;;;6.75;6.75;;;;;31.33;40.22;100625.59;4938167;28;45238;-50
2021/06/17 02:58:03;;;;;;;;;5.00;5.00;;;;;31.36;40.18;100635.34;4938345;28;45379;-47
2021/06/17 03:00:33;;;;;;;;;6.25;4.75;;;;;31.36;40.18;100646.44;4938001;28;45276;-49
2021/06/17 03:03:03;;;;;;;;;5.50;5.00;;;;;31.34;39.86;100657.78;4938031;28;45237;-46
2021/06/17 03:05:34;;;;;;;;;8.00;6.00;;;;;31.33;40.54;100642.25;4937353;28;45434;-46
2021/06/17 03:08:26;;;;;;;;;7.00;5.25;;;;;31.33;39.96;100628.38;4938215;28;45369;-48
2021/06/17 03:10:57;;;;;;;;;5.75;4.75;;;;;31.32;39.94;100621.13;4916476;28;45371;-52
2021/06/17 03:13:28;;;;;;;;;5.00;4.75;;;;;31.31;40.47;100602.78;4916503;28;45571;-49
2021/06/17 03:15:53;;;;;;;;;3.50;3.50;;;;;31.28;40.71;100589.41;4916782;28;45358;-49
2021/06/17 03:18:20;;;;;;;;;5.50;5.00;;;;;31.27;40.29;100554.44;4916702;28;45457;-44
2021/06/17 03:20:49;;;;;;;;;3.75;3.75;;;;;31.29;40.38;100563.34;4919588;28;45336;-46
2021/06/17 03:23:18;;;;;;;;;7.00;4.75;;;;;31.29;40.85;100543.13;4920085;28;45557;-47
2021/06/17 03:25:49;;;;;;;;;4.00;4.00;;;;;31.28;40.83;100550.56;4919850;28;45350;-48
2021/06/17 03:28:16;;;;;;;;;6.50;5.00;;;;;31.28;40.50;100563.63;4920105;28;45504;-50
2021/06/17 03:30:45;;;;;;;;;4.50;4.50;;;;;31.27;40.26;100568.31;4920117;28;45554;-49
2021/06/17 03:33:12;;;;;;;;;5.25;4.00;;;;;31.27;40.35;100586.88;4919709;28;45437;-44
2021/06/17 03:35:39;;;;;;;;;6.00;6.00;;;;;31.26;40.93;100566.66;4919556;28;45381;-44
2021/06/17 03:38:08;;;;;;;;;4.00;4.00;;;;;31.27;40.98;100553.59;4920055;28;45421;-48
2021/06/17 03:40:34;;;;;;;;;4.50;4.50;;;;;31.17;40.72;100523.72;4919548;28;45269;-50
2021/06/17 03:43:00;;;;;;;;;4.00;4.00;;;;;31.23;40.61;100506.94;4919308;28;45574;-45
2021/06/17 03:45:28;;;;;;;;;5.50;3.75;;;;;31.22;40.69;100485.84;4903593;28;45273;-49
2021/06/17 03:47:54;;;;;;;;;4.25;4.25;;;;;31.21;40.45;100472.22;4930884;28;45281;-45
2021/06/17 03:50:23;;;;;;;;;6.75;5.25;;;;;31.15;40.66;100462.09;4940527;28;45483;-47
2021/06/17 03:52:50;;;;;;;;;5.75;4.00;;;;;31.21;40.55;100509.09;4940850;28;46497;-47
2021/06/17 03:55:17;;;;;;;;;4.75;4.75;;;;;31.21;41.06;100527.69;4940869;28;45364;-47
2021/06/17 03:57:45;;;;;;;;;6.25;5.00;;;;;31.19;41.07;100539.00;4940915;28;45400;-49
2021/06/17 04:00:11;;;;;;;;;5.25;4.00;;;;;31.18;40.92;100530.94;4940923;28;45351;-50
2021/06/17 04:02:38;;;;;;;;;5.00;5.00;;;;;31.20;40.93;100537.94;4940556;28;46469;-45
2021/06/17 04:05:04;;;;;;;;;4.00;3.75;;;;;31.19;40.77;100529.84;4940684;28;45737;-45
2021/06/17 04:07:32;;;;;;;;;4.25;4.25;;;;;31.18;40.75;100536.50;4940853;28;45300;-50
2021/06/17 04:09:59;;;;;;;;;5.25;4.25;;;;;31.18;40.82;100536.50;4940743;28;45250;-46
2021/06/17 04:12:29;;;;;;;;;5.00;5.00;;;;;31.16;41.23;100527.56;4940543;28;46123;-47
2021/06/17 04:14:59;;;;;;;;;5.50;4.75;;;;;31.17;41.03;100504.28;4940565;28;45667;-46
2021/06/17 04:17:31;;;;;;;;;7.00;5.25;;;;;31.16;41.47;100466.56;4940371;28;45379;-53
2021/06/17 04:20:01;;;;;;;;;5.00;4.75;;;;;31.15;41.46;100464.88;4940594;28;45261;-48
2021/06/17 04:22:29;;;;;;;;;5.25;4.25;;;;;31.15;41.32;100487.91;4940401;28;45412;-49
2021/06/17 04:24:59;;;;;;;;;5.00;4.50;;;;;31.14;41.07;100500.09;4939327;28;45563;-47
2021/06/17 04:27:26;;;;;;;;;8.50;7.50;;;;;31.13;41.29;100509.50;4939188;28;45356;-50
2021/06/17 04:29:54;;;;;;;;;5.75;4.75;;;;;31.11;41.50;100496.94;4940161;28;45372;-48
2021/06/17 04:32:21;;;;;;;;;6.25;5.00;;;;;31.14;41.14;100511.19;4953663;28;46212;-47
2021/06/17 04:34:50;;;;;;;;;7.50;5.00;;;;;31.13;41.29;100522.50;4940251;28;45190;-49
2021/06/17 04:37:22;;;;;;;;;4.50;4.50;;;;;31.13;41.70;100519.72;4940403;28;45271;-49
2021/06/17 04:39:48;;;;;;;;;7.00;5.00;;;;;31.08;41.63;100518.50;4939983;28;45458;-50
2021/06/17 04:42:14;;;;;;;;;5.75;5.25;;;;;31.13;41.20;100522.50;4940248;28;46328;-48
2021/06/17 04:44:43;;;;;;;;;4.50;3.00;;;;;31.11;41.22;100519.13;4938472;28;45557;-49
2021/06/17 04:47:09;;;;;;;;;3.25;3.25;;;;;31.09;41.75;100502.72;4940124;28;45417;-48
2021/06/17 04:49:36;;;;;;;;;6.00;4.75;;;;;31.07;41.82;100502.97;4940062;28;45481;-48
2021/06/17 04:52:05;;;;;;;;;5.50;4.75;;;;;31.07;41.27;100497.41;4922743;28;46609;-46
2021/06/17 04:54:31;;;;;;;;;4.00;4.00;;;;;31.09;41.36;100492.47;4940063;28;45265;-48
2021/06/17 04:56:56;;;;;;;;;6.00;6.00;;;;;31.08;41.79;100510.19;4939898;28;45400;-46
2021/06/17 04:59:22;;;;;;;;;3.75;3.75;;;;;31.07;41.41;100510.41;4940028;28;45309;-47
2021/06/17 05:01:49;;;;;;;;;6.00;3.75;;;;;31.07;41.36;100516.81;4939132;28;46198;-48
2021/06/17 05:04:17;;;;;;;;;4.75;3.75;;;;;31.05;41.43;100524.53;4939715;28;45429;-47
2021/06/17 05:06:53;;;;;;;;;5.00;3.25;;;;;31.08;42.03;100537.91;4939991;28;45399;-47
2021/06/17 05:12:16;;;;;;;;;4.00;4.00;;;;;31.08;42.13;100512.09;4948939;28;46132;-46
2021/06/17 05:14:42;;;;;;;;;3.00;3.00;;;;;31.07;41.57;100505.75;4938348;28;45917;-49
2021/06/17 05:17:08;;;;;;;;;4.00;4.00;;;;;31.08;41.38;100507.44;4934355;28;45807;-45
2021/06/17 05:19:34;;;;;;;;;4.25;4.25;;;;;31.07;42.02;100511.28;4938659;28;45373;-48
2021/06/17 05:21:59;;;;;;;;;3.00;3.00;;;;;31.08;41.89;100506.56;4938783;28;45526;-44
2021/06/17 05:24:25;;;;;;;;;2.00;2.00;;;;;31.07;42.19;100491.00;4938788;28;45485;-48
2021/06/17 05:26:51;;;;;;;;;4.75;3.75;;;;;31.08;41.72;100503.78;4939144;28;45622;-46
2021/06/17 05:29:16;;;;;;;;;5.25;5.25;;;;;31.07;42.14;100510.41;4939257;28;45399;-46
2021/06/17 05:31:42;;;;;;;;;4.50;4.50;;;;;31.08;41.76;100529.59;4938692;28;45589;-47
2021/06/17 05:34:07;;;;;;;;;5.50;5.00;;;;;31.08;41.62;100534.28;4937998;28;45538;-49
2021/06/17 05:36:33;;;;;;;;;5.75;4.75;;;;;31.07;41.81;100552.88;4938989;28;45535;-46
2021/06/17 05:38:58;;;;;;;;;5.75;4.50;;;;;31.05;41.89;100546.72;4938954;28;45397;-48
2021/06/17 05:41:24;;;;;;;;;6.00;4.25;;;;;31.07;41.74;100552.88;4938811;28;45276;-48
2021/06/17 05:43:50;;;;;;;;;6.00;4.75;;;;;31.06;42.35;100551.19;4938132;28;45522;-48
2021/06/17 05:46:15;;;;;;;;;3.75;3.75;;;;;31.06;41.87;100553.09;4938318;28;45422;-50
2021/06/17 05:48:42;;;;;;;;;3.50;3.50;;;;;31.05;42.46;100549.50;4938789;28;45435;-47
2021/06/17 05:51:08;;;;;;;;;4.25;3.25;;;;;31.06;42.24;100548.41;4938279;28;46429;-47
2021/06/17 05:53:33;;;;;;;;;4.25;4.25;;;;;31.03;42.28;100554.44;4938168;28;45586;-46
2021/06/17 05:55:59;;;;;;;;;3.75;3.75;;;;;31.06;42.45;100567.81;4938443;28;45347;-46
2021/06/17 05:58:25;;;;;;;;;3.75;3.75;;;;;31.05;42.07;100577.22;4938788;28;45230;-49
2021/06/17 06:00:50;;;;;;;;;4.75;4.75;;;;;31.05;42.12;100571.66;4938581;28;46432;-49
2021/06/17 06:03:16;;;;;;;;;4.00;4.00;;;;;31.05;41.95;100579.13;4939160;28;45272;-48
2021/06/17 06:05:41;;;;;;;;;6.00;4.00;;;;;31.05;42.51;100584.66;4937656;28;45261;-45
2021/06/17 06:08:11;;;;;;;;;6.25;4.25;;;;;31.04;42.65;100592.16;4938953;28;45217;-47
2021/06/17 06:10:38;;;;;;;;;3.00;3.00;;;;;31.08;42.32;100606.38;4937921;28;46171;-46
2021/06/17 06:13:04;;;;;;;;;4.25;4.25;;;;;31.07;42.28;100619.41;4942398;28;45495;-46
2021/06/17 06:15:33;;;;;;;;;4.25;4.00;;;;;31.07;42.02;100621.31;4955518;28;45354;-48
2021/06/17 06:18:16;;;;;;;;;4.75;4.75;;;;;31.07;42.38;100633.28;4938245;28;45643;-46
2021/06/17 06:20:44;;;;;;;;;3.75;3.75;;;;;31.07;41.96;100630.50;4938683;28;46526;-45
2021/06/17 06:23:10;;;;;;;;;4.00;4.00;;;;;31.07;42.30;100643.50;4938570;28;45455;-44
2021/06/17 06:25:37;;;;;;;;;3.75;3.75;;;;;31.08;42.08;100640.50;4953642;28;45398;-45
2021/06/17 06:28:03;;;;;;;;;3.75;3.75;;;;;31.08;42.16;100645.19;4938512;28;45321;-47
2021/06/17 06:30:29;;;;;;;;;5.00;4.00;;;;;31.07;42.29;100655.47;4953385;28;46296;-49
2021/06/17 06:32:55;;;;;;;;;3.00;3.00;;;;;31.08;42.63;100664.59;4938178;28;45249;-47
2021/06/17 06:35:20;;;;;;;;;4.50;3.75;;;;;31.08;42.47;100661.81;4938585;28;45346;-47
2021/06/17 06:37:49;;;;;;;;;4.25;4.25;;;;;31.07;42.45;100660.13;4938465;28;45372;-47
2021/06/17 06:40:17;;;;;;;;;4.00;3.00;;;;;31.09;42.64;100669.94;4937069;28;45522;-46
2021/06/17 06:42:43;;;;;;;;;6.00;4.00;;;;;31.08;42.33;100659.91;4936389;28;45431;-48
2021/06/17 06:45:10;;;;;;;;;4.25;4.00;;;;;31.08;42.19;100659.06;4938441;28;45479;-49
2021/06/17 06:47:36;;;;;;;;;5.25;5.00;;;;;31.08;42.71;100672.91;4938012;28;45661;-49
2021/06/17 06:50:02;;;;;;;;;2.75;2.75;;;;;31.11;42.72;100675.22;4938233;28;45874;-49
2021/06/17 06:52:27;;;;;;;;;3.25;3.25;;;;;31.10;42.78;100684.63;4938314;28;45224;-48
2021/06/17 06:54:58;;;;;;;;;4.25;4.25;;;;;31.11;42.44;100688.25;4937708;28;45381;-48
2021/06/17 06:57:23;;;;;;;;;4.00;4.00;;;;;31.12;42.83;100696.31;4938176;28;45312;-46
2021/06/17 06:59:49;;;;;;;;;3.75;3.75;;;;;31.12;42.89;100688.00;4937676;28;46258;-46
2021/06/17 07:02:14;;;;;;;;;4.00;4.00;;;;;31.11;42.31;100689.09;4937738;28;45291;-47
2021/06/17 07:04:40;;;;;;;;;3.75;3.75;;;;;31.13;42.45;100683.31;4938231;28;45241;-50
2021/06/17 07:07:05;;;;;;;;;5.75;3.75;;;;;31.12;42.91;100681.63;4936399;28;45287;-47
2021/06/17 07:09:31;;;;;;;;;5.75;5.00;;;;;31.06;42.30;100678.72;4937890;28;45634;-48
2021/06/17 07:11:56;;;;;;;;;5.75;4.00;;;;;31.15;42.29;100692.25;4937776;28;45190;-50
2021/06/17 07:14:22;;;;;;;;;4.50;4.00;;;;;31.11;42.26;100691.84;4937941;28;45181;-49
2021/06/17 07:16:47;;;;;;;;;5.00;4.75;;;;;31.15;42.61;100695.03;4937975;28;45226;-46
2021/06/17 07:19:13;;;;;;;;;4.00;4.00;;;;;31.16;42.72;100694.81;4937842;28;45607;-48
2021/06/17 07:21:38;;;;;;;;;6.25;4.50;;;;;31.15;42.19;100700.56;4937848;28;45393;-51
2021/06/17 07:24:04;;;;;;;;;4.25;4.25;;;;;31.17;43.06;100710.34;4938023;28;45443;-48
2021/06/17 07:26:31;;;;;;;;;4.75;4.25;;;;;31.15;42.87;100703.34;4937517;28;45306;-45
2021/06/17 07:28:57;;;;;;;;;4.00;4.00;;;;;31.16;42.47;100708.66;4937263;28;46104;-47
2021/06/17 07:31:23;;;;;;;;;4.75;3.50;;;;;31.18;42.35;100713.97;4937852;28;45336;-48
2021/06/17 07:33:49;;;;;;;;;4.75;4.75;;;;;31.14;42.97;100713.59;4935643;28;45348;-47
2021/06/17 07:36:15;;;;;;;;;5.75;5.75;;;;;31.09;42.62;100739.25;4937070;28;45276;-43
2021/06/17 07:38:41;;;;;;;;;7.25;4.25;;;;;31.01;43.50;100734.03;4934515;28;46425;-45
2021/06/17 07:41:07;;;;;;;;;5.75;4.75;;;;;30.94;43.51;100730.53;4936986;28;45447;-41
2021/06/17 07:43:33;;;;;;;;;4.50;4.50;;;;;30.86;43.10;100740.00;4936019;28;45468;-43
2021/06/17 07:45:59;;;;;;;;;5.00;5.00;;;;;30.70;43.59;100724.03;4937638;28;45433;-42
2021/06/17 07:48:28;;;;;;;;;3.75;3.75;;;;;30.56;43.86;100720.59;4937566;28;46525;-43
2021/06/17 07:50:54;;;;;;;;;2.75;2.75;;;;;30.38;43.82;100710.38;4937454;28;45306;-42
2021/06/17 07:53:19;;;;;;;;;3.50;3.50;;;;;30.27;43.68;100726.69;4936844;28;45299;-42
2021/06/17 07:55:45;;;;;;;;;3.50;3.50;;;;;30.14;43.89;100721.31;4936444;28;45312;-42
2021/06/17 07:58:11;;;;;;;;;4.25;3.00;;;;;30.04;44.00;100727.38;4935914;28;47782;-41
2021/06/17 08:00:37;;;;;;;;;3.75;3.75;;;;;29.91;44.39;100702.59;4937165;28;45332;-42
2021/06/17 08:03:03;;;;;;;;;5.25;4.00;;;;;29.80;43.97;100702.28;4931697;28;45440;-44
2021/06/17 08:05:29;;;;;;;;;3.00;3.00;;;;;29.82;44.37;100710.34;4937431;28;45366;-42
2021/06/17 08:07:55;;;;;;;;;2.25;2.00;;;;;29.90;44.65;100723.03;4940400;28;45359;-44
2021/06/17 08:10:20;;;;;;;;;4.00;3.00;;;;;29.95;44.52;100723.25;4940148;28;45470;-44
2021/06/17 08:12:46;;;;;;;;;2.75;2.75;;;;;30.01;44.59;100717.63;4940785;28;45259;-43
2021/06/17 08:15:12;;;;;;;;;4.75;3.75;;;;;30.07;44.44;100710.31;4940021;28;45444;-44
2021/06/17 08:17:38;;;;;;;;;5.00;4.00;;;;;30.12;44.76;100717.94;4940384;28;46305;-44
2021/06/17 08:20:05;;;;;;;;;4.75;4.75;;;;;30.21;44.01;100726.78;4940209;28;45246;-47
2021/06/17 08:22:31;;;;;;;;;4.50;3.50;;;;;30.23;44.60;100713.56;4940361;28;45237;-47
2021/06/17 08:24:56;;;;;;;;;2.25;2.25;;;;;30.30;43.73;100719.84;4940290;28;45275;-45
2021/06/17 08:27:22;;;;;;;;;3.00;3.00;;;;;30.35;44.21;100733.84;4940222;28;45234;-45
2021/06/17 08:29:48;;;;;;;;;4.75;4.75;;;;;30.39;43.79;100725.91;4940270;28;45237;-48
2021/06/17 08:32:14;;;;;;;;;3.50;2.50;;;;;30.41;43.37;100727.34;4936624;28;45854;-47
2021/06/17 08:34:39;;;;;;;;;5.00;3.75;;;;;30.45;43.63;100725.00;4944688;28;45541;-47
2021/06/17 08:37:05;;;;;;;;;4.50;2.75;;;;;30.51;43.79;100715.72;4938101;28;45438;-47
2021/06/17 08:39:32;;;;;;;;;2.75;2.75;;;;;30.54;43.57;100734.69;4934186;28;45503;-43
2021/06/17 08:41:59;;;;;;;;;2.75;2.75;;;;;30.57;43.14;100727.81;4938378;28;45458;-43
2021/06/17 08:44:24;;;;;;;;;4.25;2.75;;;;;30.60;43.07;100730.13;4937482;28;45598;-44
2021/06/17 08:46:51;;;;;;;;;4.25;1.75;;;;;30.63;43.41;100729.69;4939473;28;46512;-45
2021/06/17 08:49:19;;;;;;;;;3.00;2.50;;;;;30.66;43.22;100734.75;4939519;28;45350;-45
2021/06/17 08:51:47;;;;;;;;;2.25;2.25;;;;;30.68;42.91;100734.50;4939620;28;45459;-48
2021/06/17 08:54:19;;;;;;;;;3.00;3.00;;;;;30.70;43.11;100732.34;4939037;28;45723;-47
2021/06/17 08:56:44;;;;;;;;;3.00;3.00;;;;;30.70;43.04;100737.91;4938974;28;46185;-44
2021/06/17 08:59:10;;;;;;;;;2.50;2.50;;;;;30.74;43.12;100747.44;4937989;28;45850;-45
2021/06/17 09:01:38;;;;;;;;;2.25;2.25;;;;;30.74;42.87;100737.19;4938767;28;45801;-45
2021/06/17 09:04:22;;;;;;;;;5.00;2.50;;;;;30.78;42.79;100732.00;4951640;28;45535;-47
2021/06/17 09:07:11;;;;;;;;;3.75;3.25;;;;;30.80;42.19;100738.16;4958369;28;45715;-45
2021/06/17 09:09:38;;;;;;;;;1.00;1.00;;;;;30.80;42.40;100729.84;4958579;28;45751;-45
2021/06/17 09:12:06;;;;;;;;;2.50;2.50;;;;;30.83;42.31;100736.88;4945650;28;45532;-44
2021/06/17 09:14:32;;;;;;;;;2.00;2.00;;;;;30.83;42.39;100740.47;4927605;28;45458;-44
2021/06/17 09:17:09;;;;;;;;;2.00;2.00;;;;;30.83;42.44;100728.56;4929962;28;45613;-43
2021/06/17 09:19:44;;;;;;;;;3.00;3.00;;;;;30.86;42.21;100741.94;4938835;28;45800;-44
2021/06/17 09:22:12;;;;;;;;;3.75;2.00;;;;;30.87;42.19;100749.16;4938041;28;45672;-43
2021/06/17 09:24:39;;;;;;;;;2.00;2.00;;;;;30.87;42.10;100744.47;4938904;28;45516;-43
2021/06/17 09:27:29;;;;;;;;;2.25;2.25;;;;;30.88;42.04;100748.94;4938293;28;46133;-44
2021/06/17 09:30:15;;;;;;;;;4.25;4.25;;;;;30.89;42.40;100749.78;4938219;28;45720;-46
2021/06/17 09:32:48;;;;;;;;;2.75;2.00;;;;;30.91;42.24;100753.16;4937774;28;45543;-46
2021/06/17 09:35:14;;;;;;;;;1.00;1.00;;;;;30.91;42.50;100747.63;4953262;28;45372;-45
2021/06/17 09:37:39;;;;;;;;;1.75;1.75;;;;;30.91;42.51;100742.06;4937872;28;45382;-46
2021/06/17 09:40:24;;;;;;;;;1.75;1.75;;;;;30.92;42.13;100749.31;4938522;28;45380;-49
2021/06/17 09:42:50;;;;;;;;;1.75;1.75;;;;;30.93;41.66;100743.53;4938371;28;45467;-47
2021/06/17 09:45:22;;;;;;;;;1.50;1.50;;;;;30.94;42.09;100744.38;4937648;28;45538;-46
2021/06/17 09:47:49;;;;;;;;;2.75;2.75;;;;;30.93;41.66;100749.06;4930461;28;45592;-43
2021/06/17 09:50:28;;;;;;;;;1.75;1.75;;;;;30.94;41.96;100756.31;4938591;28;45577;-48
2021/06/17 09:52:55;;;;;;;;;1.75;1.75;;;;;30.92;41.38;100752.09;4919182;28;45238;-45
2021/06/17 09:55:41;;;;;;;;;4.75;3.25;;;;;30.95;41.98;100759.94;4919156;28;45364;-45
2021/06/17 09:58:12;;;;;;;;;2.25;2.25;;;;;30.96;41.83;100753.31;4927817;28;45560;-46
2021/06/17 10:00:56;;;;;;;;;3.75;3.75;;;;;30.97;41.88;100755.00;4937561;28;45646;-46
2021/06/17 10:03:22;;;;;;;;;2.00;2.00;;;;;30.98;41.49;100755.84;4956951;28;45458;-46
2021/06/17 10:05:48;;;;;;;;;3.75;3.75;;;;;30.98;41.91;100759.44;4957526;28;45530;-46
2021/06/17 10:08:14;;;;;;;;;3.50;3.50;;;;;30.97;41.87;100766.09;4957247;28;46126;-44
2021/06/17 10:10:40;;;;;;;;;4.00;4.00;;;;;30.98;41.55;100753.91;4957219;28;45534;-45
2021/06/17 10:13:07;;;;;;;;;5.50;4.25;;;;;31.01;41.29;100753.44;4957247;28;45419;-43
2021/06/17 10:15:33;;;;;;;;;4.75;2.75;;;;;31.02;41.62;100752.34;4940718;28;46301;-42
2021/06/17 10:18:01;;;;;;;;;5.75;4.75;;;;;31.03;41.30;100748.50;4935410;28;45526;-46
2021/06/17 10:20:27;;;;;;;;;4.75;3.75;;;;;31.04;41.21;100750.19;4944572;28;45505;-45
2021/06/17 10:22:55;;;;;;;;;3.00;3.00;;;;;31.05;41.66;100751.88;4957258;28;45471;-47
2021/06/17 10:25:29;;;;;;;;;4.00;4.00;;;;;31.05;41.13;100745.47;4943509;28;45425;-46
2021/06/17 10:27:58;;;;;;;;;5.00;4.25;;;;;31.07;40.88;100746.09;4937445;28;46317;-47
2021/06/17 10:30:45;;;;;;;;;3.00;3.00;;;;;31.10;41.02;100745.63;4937156;28;45851;-45
2021/06/17 10:33:32;;;;;;;;;3.75;3.75;;;;;31.10;41.09;100742.84;4937823;28;45336;-43
2021/06/17 10:36:23;;;;;;;;;3.00;3.00;;;;;31.13;40.99;100744.31;4936976;28;45939;-46
2021/06/17 10:39:10;;;;;;;;;3.25;3.25;;;;;31.15;41.45;100747.72;4937618;28;45488;-47
2021/06/17 10:41:55;;;;;;;;;4.00;4.00;;;;;31.17;40.58;100737.22;4937674;28;45556;-42
2021/06/17 10:44:51;;;;;;;;;2.75;2.75;;;;;31.19;40.77;100735.06;4923924;28;45226;-44
2021/06/17 10:47:43;;;;;;;;;5.25;3.25;;;;;31.22;40.72;100737.38;4922961;28;45338;-48
2021/06/17 10:50:13;;;;;;;;;3.00;2.00;;;;;31.24;40.46;100732.44;4941326;28;45421;-49
2021/06/17 10:52:41;;;;;;;;;2.50;2.50;;;;;31.23;40.95;100728.81;4956595;28;45876;-47
2021/06/17 10:55:11;;;;;;;;;2.75;2.75;;;;;31.28;40.32;100725.31;4956867;28;45510;-50
2021/06/17 10:57:43;;;;;;;;;4.50;3.00;;;;;31.31;40.94;100727.63;4942013;28;45463;-48
2021/06/17 11:00:21;;;;;;;;;4.50;3.75;;;;;31.34;40.36;100741.00;4937016;28;46563;-49
2021/06/17 11:02:47;;;;;;;;;2.75;2.75;;;;;31.35;40.85;100733.53;4937460;28;45252;-45
2021/06/17 11:05:41;;;;;;;;;2.75;2.75;;;;;31.38;40.91;100736.69;4936712;28;45518;-45
2021/06/17 11:08:15;;;;;;;;;2.00;2.00;;;;;31.39;40.42;100726.41;4936773;28;45423;-45
2021/06/17 11:11:01;;;;;;;;;3.00;3.00;;;;;31.41;40.63;100726.16;4936974;28;46590;-48
2021/06/17 11:13:49;;;;;;;;;4.75;3.50;;;;;31.38;40.13;100728.38;4935865;28;45608;-48
2021/06/17 11:16:17;;;;;;;;;2.75;2.75;;;;;31.42;40.39;100725.09;4927084;28;45518;-44
2021/06/17 11:21:28;;;;;;;;;2.00;2.00;;;;;31.47;40.67;100719.66;4937147;28;46082;-46
2021/06/17 11:24:00;;;;;;;;;3.50;3.50;;;;;31.49;40.03;100720.28;4936988;28;45717;-47
2021/06/17 11:26:37;;;;;;;;;3.50;3.00;;;;;31.50;40.08;100717.25;4937138;28;45486;-46
2021/06/17 11:29:05;;;;;;;;;2.25;2.25;;;;;31.53;40.04;100725.09;4937032;28;45379;-43
2021/06/17 11:31:39;;;;;;;;;3.75;3.75;;;;;31.55;40.16;100724.84;4935907;28;45509;-44
2021/06/17 11:34:06;;;;;;;;;4.75;4.75;;;;;31.56;40.31;100723.75;4936280;28;45437;-43
2021/06/17 11:36:32;;;;;;;;;4.00;4.00;;;;;31.58;40.15;100723.53;4936494;28;45466;-51
2021/06/17 11:39:02;;;;;;;;;4.75;3.75;;;;;31.61;39.71;100709.19;4937050;28;45495;-46